HVN weather

Public forecast

Using degrees Fahrenheit for public forecast. Weather courtesy of forecast.io.

Current aviation weather report (METAR) for Tweed New Haven Airport

Retrieved 2020/08/14 01:53 UTC (38 minutes ago):

KHVN 140153Z 00000KT 10SM CLR 23/21 A3009 RMK AO2 SLP187 T02330211

Closest aviation forecast (TAF) to Tweed New Haven Airport

Closest forecast is Igor I Sikorsky Memorial Airport, 12.4 nm (22.9 km) WSW. Retrieved 2020-08-14 00:27 UTC (2 hours ago):

TAF KBDR 132325Z 1400/1424 16005KT P6SM SCT060 BKN150 FM141200 05004KT P6SM SCT030 BKN150 FM141400 09009KT P6SM SCT030 BKN045